OMRKORSU

Guest
Details From OMRK - RAS AL KHAIMAH INTL
To ORSU - SULAYMANIYAH INTL
Flight Number -
Tags decoded
Created
Modified
Stats Distance 817 nm / 1,513 km
Max Altitude 0 ft / 0 m
Waypoints 4
Social Downloads 0
Likes 0
Share VATSIM

Download

Looking for another format? Having issues loading an existing format? Contact us
Advertisement - Login to hide

Notes

Requested: OMRK RAV NADIL TUMAK ITBIT TAGRU DAVAS SUL ORSU Unmatched points: NADIL ITBIT TAGRU DAVAS

Route

OMRK RAV SUL ORSU

ID Type Via Altitude Latitude Longitude Leg Dist Tot Dist Heading (true) Name
O OMRK APT - 0 ft / 0 m 25.61335˚ 55.93883˚ - 0 nm - RAS AL KHAIMAH INTL
RAV VOR - 0 ft / 0 m 25.58843˚ 55.94633˚ 1 nm 1 nm 165° / 165° RAS AL KHAIMAH VOR-DME
SUL VOR - 0 ft / 0 m 35.57958˚ 45.29007˚ 813 nm 815 nm 320° / 315° SULAYMANIYAH VOR
O ORSU APT - 0 ft / 0 m 35.56086˚ 45.31466˚ 1 nm 816 nm 133° / 133° SULAYMANIYAH INTL

Altitude Profile

Advertisement - Login to hide

Weather


0- 5 10 15 20 25 30 35+ Temperature / ° C

Clouds and Precipitation
Forecast for 2017-12-16 18:00 UTC. Updated 2 hours ago

Ground ~20,000 ft ~40,000 ft Winds

OMRK

Details ICAO OMRK (RKT)
Name RAS AL KHAIMAH INTL
Region United Arab Emirates
Timezone Asia/Dubai (UTC+4.0)
Stats Elevation 102 ft / 31 m (AMSL)
Location 25.613352° 55.938831°
Runways 1
Magnetic Variation 2.053° E

METAR

OMRK 161400Z 10009KT 9999 SCT035 19/13 Q1020 A3013

Decode

TAF

TAF OMRK 161105Z 1612/1718 12012KT 8000 BKN035 PROB30 TEMPO 1612/1620 VRB20G35KT 1500 TSRA BLDU SCT040CB PROB30 TEMPO 1706/1718 VRB20G30KT 1500 SHRA BLDU FEW040TCU

Decode

Departure Runways

ID Width Length Bearing (true) Bearing (mag) Surface Threshold Offset Overrun Length
16 148 ft / 45 m 12,391 ft / 3,777 m 164.83° 162.78° Asphalt 0 ft / 0 m 165 ft / 50 m
34 148 ft / 45 m 12,391 ft / 3,777 m 344.84° 342.79° Asphalt 0 ft / 0 m 165 ft / 50 m

ORSU

Details ICAO ORSU (ISU)
Name SULAYMANIYAH INTL
Region Iraq
Timezone Asia/Baghdad (UTC+3.0)
Stats Elevation 2,494 ft / 760 m (AMSL)
Location 35.560856° 45.314664°
Runways 1
Magnetic Variation 5.040° E

METAR

ORSU 161400Z VRB02KT CAVOK 10/03 Q1024

Decode

TAF

TAF ORSU 161100Z 1612/1712 12006KT CAVOK BECMG 1614/1616 31005KT BECMG 1706/1708 13005KT 9999 FEW045 SCT200

Decode

Destination Runways

ID Width Length Bearing (true) Bearing (mag) Surface Threshold Offset Overrun Length
13 148 ft / 45 m 11,482 ft / 3,500 m 133.03° 127.99° Concrete 0 ft / 0 m 200 ft / 61 m
31 148 ft / 45 m 11,482 ft / 3,500 m 313.04° 308.00° Concrete 0 ft / 0 m 200 ft / 61 m

Approach Navaids

Runway Type Ident Frequency Range Bearing (true) Bearing (mag) Slope Elevation
31 Localiser RNJ 111.70 MHz 18 nm / 33 km 313.02° 307.98° - 2,505 ft / 764 m (AMSL)
31 Glidescope RNJ 111.70 MHz 10 nm / 19 km 313.03° 307.99° 3.00° 2,440 ft / 744 m (AMSL)
31 DME RNJ 111.70 MHz 18 nm / 33 km - - - 2,440 ft / 744 m (AMSL)

Popular Alternatives